createdAt,value
2022-11-22T00:00:02.364Z,3.8
2022-11-22T00:05:01.770Z,3.8
2022-11-22T00:10:00.985Z,3.9
2022-11-22T00:15:00.397Z,3.9
2022-11-22T00:18:50.747Z,4.0
2022-11-22T00:19:59.553Z,4.0
2022-11-22T00:24:58.952Z,4.0
2022-11-22T00:28:02.599Z,4.0
2022-11-22T00:29:59.225Z,4.0
2022-11-22T00:36:10.853Z,4.0
2022-11-22T00:39:58.719Z,4.1
2022-11-22T00:43:51.472Z,4.1
2022-11-22T00:45:00.420Z,4.0
2022-11-22T00:49:58.842Z,4.1
2022-11-22T00:54:55.815Z,4.1
2022-11-22T00:59:53.988Z,4.0
2022-11-22T01:04:57.683Z,4.0
2022-11-22T01:09:52.587Z,4.0
2022-11-22T01:14:52.028Z,4.1
2022-11-22T01:20:04.142Z,4.1
2022-11-22T01:24:50.621Z,4.0
2022-11-22T01:29:50.190Z,4.1
2022-11-22T01:34:49.201Z,4.1
2022-11-22T01:39:48.659Z,4.0
2022-11-22T01:44:47.916Z,4.1
2022-11-22T01:49:47.339Z,4.1
2022-11-22T01:54:46.574Z,4.1
2022-11-22T02:04:46.718Z,4.2
2022-11-22T02:09:44.619Z,4.2
2022-11-22T02:17:49.776Z,4.2
2022-11-22T02:19:43.416Z,4.2
2022-11-22T02:24:42.802Z,4.1
2022-11-22T02:29:42.017Z,4.1
2022-11-22T02:30:37.830Z,4.1
2022-11-22T02:32:18.083Z,4.1
2022-11-22T02:34:41.289Z,4.1
2022-11-22T02:39:40.583Z,4.1
2022-11-22T02:44:39.850Z,4.1
2022-11-22T02:49:39.234Z,4.1
2022-11-22T02:54:38.536Z,4.0
2022-11-22T02:59:37.903Z,4.1
2022-11-22T03:04:37.266Z,4.1
2022-11-22T03:06:22.745Z,4.1
2022-11-22T03:09:38.609Z,4.1
2022-11-22T03:14:36.032Z,4.1
2022-11-22T03:19:35.358Z,4.0
2022-11-22T03:24:34.586Z,4.0
2022-11-22T03:29:33.818Z,4.0
2022-11-22T03:30:47.357Z,3.9
2022-11-22T03:34:33.264Z,3.9
2022-11-22T03:37:36.187Z,3.9
2022-11-22T03:39:32.869Z,3.9
2022-11-22T03:39:49.349Z,3.9
2022-11-22T03:44:32.059Z,4.0
2022-11-22T03:49:31.404Z,4.1
2022-11-22T03:51:51.348Z,4.0
2022-11-22T03:54:30.544Z,4.0
2022-11-22T04:09:29.579Z,3.9
2022-11-22T04:19:27.366Z,3.9
2022-11-22T04:22:53.344Z,3.9
2022-11-22T04:29:25.922Z,3.9
2022-11-22T04:34:25.354Z,4.0
2022-11-22T04:39:25.955Z,3.9
2022-11-22T04:49:26.770Z,3.9
2022-11-22T04:54:22.624Z,3.9
2022-11-22T04:56:55.007Z,3.9
2022-11-22T04:59:24.219Z,3.9
2022-11-22T05:09:20.691Z,4.0
2022-11-22T05:14:20.041Z,4.1
2022-11-22T05:19:19.340Z,4.1
2022-11-22T05:24:18.729Z,4.1
2022-11-22T05:29:18.109Z,4.1
2022-11-22T05:39:20.651Z,4.1
2022-11-22T05:40:40.942Z,4.1
2022-11-22T05:44:20.378Z,4.0
2022-11-22T05:49:16.632Z,4.0
2022-11-22T05:54:14.748Z,4.1
2022-11-22T06:09:17.134Z,3.9
2022-11-22T06:14:02.093Z,4.0
2022-11-22T06:14:13.234Z,4.0
2022-11-22T06:19:03.920Z,4.1
2022-11-22T06:19:11.310Z,4.1
2022-11-22T06:24:11.209Z,4.1
2022-11-22T06:29:10.118Z,4.1
2022-11-22T06:39:08.766Z,4.1
2022-11-22T06:44:08.139Z,4.1
2022-11-22T06:45:42.812Z,4.2
2022-11-22T06:49:07.535Z,4.2
2022-11-22T06:52:06.143Z,4.2
2022-11-22T06:54:06.935Z,4.2
2022-11-22T06:59:06.336Z,4.3
2022-11-22T07:04:05.711Z,4.3
2022-11-22T07:09:07.260Z,4.4
2022-11-22T07:19:05.083Z,4.4
2022-11-22T07:29:02.740Z,4.4
2022-11-22T07:30:17.552Z,4.4
2022-11-22T07:34:02.232Z,4.5
2022-11-22T07:39:01.474Z,4.6
2022-11-22T07:44:00.866Z,4.6
2022-11-22T07:49:01.536Z,4.7
2022-11-22T07:53:59.640Z,4.8
2022-11-22T07:58:59.068Z,4.9
2022-11-22T08:03:58.468Z,4.8
2022-11-22T08:07:03.673Z,4.8
2022-11-22T08:09:02.022Z,4.8
2022-11-22T08:13:57.312Z,4.7
2022-11-22T08:18:56.647Z,4.8
2022-11-22T08:23:56.135Z,4.8
2022-11-22T08:28:55.486Z,4.8
2022-11-22T08:30:26.866Z,4.8
2022-11-22T08:33:54.995Z,4.8
2022-11-22T08:38:54.381Z,4.9
2022-11-22T08:43:53.818Z,4.8
2022-11-22T08:48:53.184Z,4.8
2022-11-22T08:51:35.724Z,4.9
2022-11-22T08:53:57.596Z,4.9
2022-11-22T08:57:34.288Z,5.0
2022-11-22T08:58:53.377Z,5.0
2022-11-22T09:03:53.431Z,5.0
2022-11-22T09:04:17.950Z,5.0
2022-11-22T09:05:02.397Z,5.0
2022-11-22T09:08:57.503Z,5.1
2022-11-22T09:19:03.478Z,5.4
2022-11-22T09:23:49.074Z,5.5
2022-11-22T09:28:51.855Z,5.7
2022-11-22T09:33:49.315Z,5.8
2022-11-22T09:38:48.828Z,5.9
2022-11-22T09:43:51.032Z,6.1
2022-11-22T09:48:46.360Z,6.2
2022-11-22T09:53:45.858Z,6.3
2022-11-22T09:58:49.565Z,6.4
2022-11-22T10:02:11.879Z,6.4
2022-11-22T10:03:44.681Z,6.4
2022-11-22T10:08:48.422Z,6.6
2022-11-22T10:13:43.627Z,6.8
2022-11-22T10:18:43.176Z,6.9
2022-11-22T10:19:19.690Z,6.9
2022-11-22T10:23:42.644Z,6.8
2022-11-22T10:28:08.055Z,6.8
2022-11-22T10:28:47.169Z,6.8
2022-11-22T10:38:41.220Z,7.1
2022-11-22T10:43:40.769Z,7.5
2022-11-22T10:48:40.292Z,7.8
2022-11-22T10:53:39.875Z,7.6
2022-11-22T11:03:38.921Z,7.4
2022-11-22T11:09:02.645Z,7.9
2022-11-22T11:10:09.139Z,7.9
2022-11-22T11:13:37.993Z,8.3
2022-11-22T11:18:37.705Z,8.4
2022-11-22T11:23:41.951Z,8.5
2022-11-22T11:33:36.523Z,9.1
2022-11-22T11:38:37.251Z,9.6
2022-11-22T11:43:35.781Z,10.2
2022-11-22T11:48:36.991Z,10.9
2022-11-22T11:53:35.210Z,10.8
2022-11-22T11:58:37.423Z,11.6
2022-11-22T12:03:34.695Z,11.6
2022-11-22T12:08:34.462Z,11.6
2022-11-22T12:14:18.388Z,12.1
2022-11-22T12:18:33.928Z,12.7
2022-11-22T12:23:33.675Z,13.7
2022-11-22T12:31:50.051Z,12.9
2022-11-22T12:33:50.964Z,12.5
2022-11-22T12:34:19.409Z,11.8
2022-11-22T12:43:32.949Z,12.4
2022-11-22T12:46:26.442Z,12.4
2022-11-22T12:48:32.751Z,11.6
2022-11-22T12:53:32.545Z,12.4
2022-11-22T12:58:33.187Z,11.4
2022-11-22T13:03:33.341Z,11.2
2022-11-22T13:08:33.116Z,10.8
2022-11-22T13:13:31.739Z,10.4
2022-11-22T13:18:33.314Z,9.9
2022-11-22T13:23:32.379Z,9.7
2022-11-22T13:28:35.042Z,9.8
2022-11-22T13:33:33.044Z,9.2
2022-11-22T13:35:02.299Z,9.2
2022-11-22T13:37:14.747Z,9.4
2022-11-22T13:38:31.858Z,9.4
2022-11-22T13:43:30.032Z,9.4
2022-11-22T13:48:30.867Z,9.3
2022-11-22T13:53:29.332Z,9.1
2022-11-22T13:58:30.318Z,9.0
2022-11-22T14:03:29.636Z,8.9
2022-11-22T14:08:28.250Z,8.9
2022-11-22T14:09:37.474Z,8.9
2022-11-22T14:13:13.224Z,8.8
2022-11-22T14:13:31.189Z,8.8
2022-11-22T14:14:29.013Z,8.8
2022-11-22T14:18:27.434Z,8.6
2022-11-22T14:23:31.015Z,8.6
2022-11-22T14:33:30.880Z,8.4
2022-11-22T14:35:11.501Z,8.4
2022-11-22T14:38:30.190Z,8.3
2022-11-22T14:43:25.486Z,8.2
2022-11-22T14:45:11.393Z,8.2
2022-11-22T14:53:24.804Z,8.2
2022-11-22T14:58:26.264Z,8.1
2022-11-22T15:03:23.885Z,7.9
2022-11-22T15:09:16.586Z,7.9
2022-11-22T15:09:53.032Z,7.9
2022-11-22T15:13:22.976Z,7.8
2022-11-22T15:58:21.180Z,6.9
2022-11-22T16:03:18.705Z,6.8
2022-11-22T16:08:18.320Z,6.6
2022-11-22T16:13:20.295Z,6.5
2022-11-22T16:21:07.312Z,6.4
2022-11-22T16:23:17.835Z,6.3
2022-11-22T16:28:16.296Z,6.2
2022-11-22T16:33:15.787Z,6.1
2022-11-22T16:38:15.359Z,6.2
2022-11-22T16:39:03.945Z,6.2
2022-11-22T16:41:26.767Z,6.2
2022-11-22T16:43:25.216Z,6.1
2022-11-22T16:48:30.787Z,6.1
2022-11-22T16:49:48.293Z,6.1
2022-11-22T16:53:13.918Z,6.1
2022-11-22T16:58:13.373Z,5.9
2022-11-22T17:03:03.658Z,6.1
2022-11-22T17:03:17.090Z,6.1
2022-11-22T17:08:12.301Z,6.2
2022-11-22T17:13:12.182Z,6.3
2022-11-22T17:18:11.205Z,6.3
2022-11-22T17:23:15.327Z,6.2
2022-11-22T17:25:00.826Z,6.2
2022-11-22T17:28:11.428Z,6.1
2022-11-22T17:33:09.589Z,6.0
2022-11-22T17:38:10.530Z,5.9
2022-11-22T17:43:09.484Z,5.9
2022-11-22T17:48:10.214Z,5.8
2022-11-22T17:52:15.169Z,5.8
2022-11-22T17:53:07.421Z,5.8
2022-11-22T17:58:08.986Z,5.7
2022-11-22T18:08:06.065Z,5.4
2022-11-22T18:13:20.810Z,5.4
2022-11-22T18:18:05.013Z,5.3
2022-11-22T18:23:04.297Z,5.2
2022-11-22T18:28:03.793Z,5.3
2022-11-22T18:33:03.166Z,5.2
2022-11-22T18:38:02.520Z,5.1
2022-11-22T18:43:01.935Z,5.0
2022-11-22T18:44:17.866Z,5.0
2022-11-22T18:48:01.346Z,5.1
2022-11-22T18:49:16.588Z,5.1
2022-11-22T18:58:10.481Z,5.2
2022-11-22T19:02:59.707Z,5.1
2022-11-22T19:07:59.185Z,4.9
2022-11-22T19:13:02.917Z,4.9
2022-11-22T19:17:59.481Z,4.9
2022-11-22T19:22:58.965Z,4.8
2022-11-22T19:27:56.621Z,4.8
2022-11-22T19:37:56.629Z,4.8
2022-11-22T19:42:59.129Z,4.8
2022-11-22T19:47:56.609Z,4.8
2022-11-22T19:52:53.678Z,4.7
2022-11-22T20:01:11.536Z,4.8
2022-11-22T20:03:25.012Z,4.8
2022-11-22T20:06:16.219Z,4.8
2022-11-22T20:07:51.846Z,4.8
2022-11-22T20:12:51.246Z,4.9
2022-11-22T20:17:52.777Z,5.1
2022-11-22T20:22:50.010Z,5.2
2022-11-22T20:27:49.391Z,5.2
2022-11-22T20:32:52.992Z,5.2
2022-11-22T20:35:39.139Z,5.2
2022-11-22T20:37:48.238Z,5.3
2022-11-22T20:42:47.768Z,5.4
2022-11-22T20:47:47.003Z,5.4
2022-11-22T20:52:46.661Z,5.4
2022-11-22T20:57:47.169Z,5.4
2022-11-22T21:02:45.276Z,5.4
2022-11-22T21:08:42.259Z,5.4
2022-11-22T21:09:19.427Z,5.4
2022-11-22T21:12:44.154Z,5.4
2022-11-22T21:18:09.236Z,5.5
2022-11-22T21:22:43.107Z,5.5
2022-11-22T21:25:04.948Z,5.6
2022-11-22T21:27:42.484Z,5.5
2022-11-22T21:29:26.442Z,5.6
2022-11-22T21:32:41.925Z,5.6
2022-11-22T21:37:41.444Z,5.6
2022-11-22T21:42:42.028Z,5.7
2022-11-22T21:47:40.312Z,5.6
2022-11-22T21:52:39.804Z,5.5
2022-11-22T21:57:40.376Z,5.6
2022-11-22T21:59:23.278Z,5.6
2022-11-22T22:02:50.818Z,5.7
2022-11-22T22:08:04.422Z,5.6
2022-11-22T22:09:04.128Z,5.7
2022-11-22T22:12:38.372Z,5.6
2022-11-22T22:17:38.351Z,5.6
2022-11-22T22:22:38.294Z,5.6
2022-11-22T22:27:35.679Z,5.6
2022-11-22T22:32:35.092Z,5.5
2022-11-22T22:37:36.550Z,5.4
2022-11-22T22:42:33.939Z,5.4
2022-11-22T22:46:37.892Z,5.4
2022-11-22T22:47:34.669Z,5.4
2022-11-22T22:48:03.409Z,5.4
2022-11-22T22:48:24.350Z,5.4
2022-11-22T22:57:32.131Z,5.4
2022-11-22T23:02:31.821Z,5.4
2022-11-22T23:07:31.206Z,5.5
2022-11-22T23:12:30.376Z,5.6
2022-11-22T23:17:29.764Z,5.8
2022-11-22T23:22:29.200Z,5.9
2022-11-22T23:27:28.580Z,5.9
2022-11-22T23:32:28.099Z,6.0
2022-11-22T23:37:27.476Z,6.1
2022-11-22T23:42:26.976Z,6.1
2022-11-22T23:55:44.182Z,6.4
2022-11-22T23:57:28.192Z,6.4
